Terminal Aerodrome Forecast
Issued by NWS Upton, NY

Home | Current Version | Previous Version | Text Only | Print | Product List | Glossary On
Versions: 1 2 3 4 5 6 7 8 9 10 11 12 13 14 15 16 17 18 19 20 21 22 23 24 25 26 27 28 29 30
000
FTUS41 KOKX 010500
TAFJFK
TAF
KJFK 010524Z 0106/0212 24006KT 6SM BR VCSH SCT020 BKN040
      TEMPO 0106/0108 SHRA
     FM010800 25006KT 6SM BR VCSH SCT015 BKN030
      TEMPO 0109/0112 5SM BR BKN015
     FM011600 18008KT P6SM SCT025 BKN040 PROB30 0118/0122 5SM SHRA
      BKN025
     FM020100 21007KT P6SM SCT025 SCT040=

USA.gov is the U.S. government's official web portal to all federal, state and local government web resources and services.